createdAt,value
2023-04-19T00:00:54.320Z,0.90
2023-04-19T00:01:54.470Z,1.00
2023-04-19T00:02:54.543Z,1.10
2023-04-19T00:03:54.467Z,0.90
2023-04-19T00:04:54.424Z,0.90
2023-04-19T00:05:54.349Z,0.80
2023-04-19T00:06:54.318Z,0.80
2023-04-19T00:07:54.352Z,0.90
2023-04-19T00:08:54.318Z,1.00
2023-04-19T00:09:54.327Z,1.10
2023-04-19T00:10:54.317Z,1.00
2023-04-19T00:11:54.324Z,1.00
2023-04-19T00:12:54.314Z,0.80
2023-04-19T00:13:54.325Z,0.90
2023-04-19T00:14:54.320Z,1.10
2023-04-19T00:15:54.327Z,1.00
2023-04-19T00:16:54.366Z,1.10
2023-04-19T00:17:54.577Z,1.00
2023-04-19T00:18:54.326Z,1.00
2023-04-19T00:19:54.326Z,1.10
2023-04-19T00:20:54.315Z,1.10
2023-04-19T00:21:54.332Z,0.90
2023-04-19T00:22:54.318Z,1.10
2023-04-19T00:23:54.357Z,1.10
2023-04-19T00:24:54.327Z,1.10
2023-04-19T00:25:54.334Z,1.10
2023-04-19T00:26:54.312Z,1.10
2023-04-19T00:27:54.316Z,1.10
2023-04-19T00:28:54.313Z,1.10
2023-04-19T00:29:54.332Z,1.20
2023-04-19T00:30:54.355Z,1.00
2023-04-19T00:31:54.328Z,1.00
2023-04-19T00:32:54.374Z,1.00
2023-04-19T00:33:54.322Z,0.90
2023-04-19T00:34:54.315Z,1.10
2023-04-19T00:35:54.319Z,1.00
2023-04-19T00:36:54.310Z,1.10
2023-04-19T00:37:54.320Z,1.00
2023-04-19T00:38:54.308Z,1.00
2023-04-19T00:39:54.392Z,0.90
2023-04-19T00:40:54.307Z,1.00
2023-04-19T00:41:54.346Z,1.00
2023-04-19T00:42:54.308Z,1.10
2023-04-19T00:43:54.360Z,1.20
2023-04-19T00:44:54.312Z,1.00
2023-04-19T00:45:54.389Z,1.00
2023-04-19T00:46:54.308Z,1.00
2023-04-19T00:47:54.346Z,1.10
2023-04-19T00:48:54.307Z,0.90
2023-04-19T00:49:54.312Z,0.90
2023-04-19T00:50:54.306Z,1.10
2023-04-19T00:51:54.313Z,1.10
2023-04-19T00:52:54.304Z,1.10
2023-04-19T00:53:54.313Z,0.90
2023-04-19T00:54:54.456Z,1.00
2023-04-19T00:55:54.328Z,1.10
2023-04-19T00:56:54.310Z,1.20
2023-04-19T00:57:54.310Z,1.10
2023-04-19T00:58:54.309Z,1.10
2023-04-19T00:59:54.314Z,1.00
2023-04-19T01:00:54.312Z,1.10
2023-04-19T01:01:54.416Z,1.10
2023-04-19T01:02:54.411Z,1.10
2023-04-19T01:03:54.407Z,1.10
2023-04-19T01:04:54.305Z,1.10
2023-04-19T01:05:54.312Z,1.00
2023-04-19T01:06:54.302Z,1.10
2023-04-19T01:07:54.320Z,1.00
2023-04-19T01:08:54.301Z,1.20
2023-04-19T01:09:54.309Z,1.00
2023-04-19T01:10:54.297Z,1.10
2023-04-19T01:11:54.328Z,1.00
2023-04-19T01:12:54.298Z,0.90
2023-04-19T01:13:54.311Z,1.20
2023-04-19T01:14:54.299Z,1.30
2023-04-19T01:15:54.338Z,1.10
2023-04-19T01:16:54.309Z,1.00
2023-04-19T01:17:54.319Z,1.00
2023-04-19T01:18:54.299Z,1.20
2023-04-19T01:19:54.308Z,1.10
2023-04-19T01:20:54.297Z,1.30
2023-04-19T01:21:54.303Z,1.20
2023-04-19T01:22:54.296Z,1.00
2023-04-19T01:23:54.305Z,1.30
2023-04-19T01:24:54.296Z,1.00
2023-04-19T01:25:54.301Z,1.10
2023-04-19T01:26:54.296Z,1.10
2023-04-19T01:27:54.333Z,1.20
2023-04-19T01:28:54.297Z,1.00
2023-04-19T01:29:54.301Z,1.20
2023-04-19T01:30:54.324Z,1.30
2023-04-19T01:31:54.306Z,1.20
2023-04-19T01:32:54.316Z,1.20
2023-04-19T01:33:54.301Z,1.20
2023-04-19T01:34:54.290Z,1.10
2023-04-19T01:35:54.301Z,1.10
2023-04-19T01:36:54.294Z,1.30
2023-04-19T01:37:54.302Z,1.30
2023-04-19T01:38:54.316Z,1.30
2023-04-19T01:39:54.299Z,1.00
2023-04-19T01:40:54.291Z,1.30
2023-04-19T01:41:54.299Z,1.00
2023-04-19T01:42:54.293Z,1.20
2023-04-19T01:43:54.333Z,1.00
2023-04-19T01:44:54.290Z,1.10
2023-04-19T01:45:54.297Z,1.30
2023-04-19T01:46:54.371Z,1.20
2023-04-19T01:47:54.334Z,1.10
2023-04-19T01:48:54.287Z,1.20
2023-04-19T01:49:54.309Z,1.10
2023-04-19T01:50:54.304Z,1.30
2023-04-19T01:51:54.293Z,1.40
2023-04-19T01:52:54.286Z,1.20
2023-04-19T01:53:54.292Z,1.30
2023-04-19T01:54:54.288Z,1.30
2023-04-19T01:55:54.302Z,1.10
2023-04-19T01:56:54.286Z,1.10
2023-04-19T01:57:54.666Z,1.30
2023-04-19T01:58:54.282Z,1.50
2023-04-19T01:59:54.316Z,1.20
2023-04-19T02:00:54.288Z,1.30
2023-04-19T02:01:54.374Z,1.10
2023-04-19T02:02:54.410Z,1.20
2023-04-19T02:03:54.505Z,1.10
2023-04-19T02:04:54.303Z,1.20
2023-04-19T02:05:54.288Z,1.00
2023-04-19T02:06:54.288Z,1.30
2023-04-19T02:07:54.289Z,1.30
2023-04-19T02:08:54.284Z,1.30
2023-04-19T02:09:54.287Z,1.40
2023-04-19T02:10:54.279Z,1.40
2023-04-19T02:11:54.286Z,1.20
2023-04-19T02:12:54.280Z,1.10
2023-04-19T02:13:54.310Z,1.20
2023-04-19T02:14:54.277Z,1.20
2023-04-19T02:15:54.408Z,1.20
2023-04-19T02:16:54.370Z,1.20
2023-04-19T02:17:54.316Z,1.50
2023-04-19T02:18:54.286Z,1.20
2023-04-19T02:19:54.286Z,1.10
2023-04-19T02:20:54.284Z,1.30
2023-04-19T02:21:54.304Z,1.40
2023-04-19T02:22:54.295Z,1.20
2023-04-19T02:23:54.283Z,1.40
2023-04-19T02:24:54.278Z,1.40
2023-04-19T02:25:54.281Z,1.20
2023-04-19T02:26:54.283Z,1.20
2023-04-19T02:27:54.287Z,1.40
2023-04-19T02:28:54.282Z,1.30
2023-04-19T02:29:54.285Z,1.50
2023-04-19T02:30:54.278Z,1.30
2023-04-19T02:31:54.372Z,1.20
2023-04-19T02:32:54.285Z,1.30
2023-04-19T02:33:54.298Z,1.30
2023-04-19T02:34:54.275Z,1.10
2023-04-19T02:35:54.311Z,1.10
2023-04-19T02:36:54.276Z,1.10
2023-04-19T02:37:54.280Z,1.20
2023-04-19T02:38:54.270Z,1.30
2023-04-19T02:39:54.300Z,1.40
2023-04-19T02:40:54.275Z,1.30
2023-04-19T02:41:54.278Z,1.40
2023-04-19T02:42:54.270Z,1.40
2023-04-19T02:43:54.278Z,1.30
2023-04-19T02:44:54.268Z,1.30
2023-04-19T02:45:54.299Z,1.30
2023-04-19T02:46:54.269Z,1.50
2023-04-19T02:47:54.362Z,1.40
2023-04-19T02:48:54.272Z,1.40
2023-04-19T02:49:54.275Z,1.20
2023-04-19T02:50:54.269Z,1.50
2023-04-19T02:51:54.270Z,1.30
2023-04-19T02:52:54.269Z,1.20
2023-04-19T02:53:54.280Z,1.20
2023-04-19T02:54:54.265Z,1.30
2023-04-19T02:55:54.286Z,1.50
2023-04-19T02:56:54.263Z,1.30
2023-04-19T02:57:54.271Z,1.40
2023-04-19T02:58:54.263Z,1.50
2023-04-19T02:59:54.270Z,1.10
2023-04-19T03:00:54.296Z,1.40
2023-04-19T03:01:54.269Z,1.50
2023-04-19T03:02:54.321Z,1.30
2023-04-19T03:03:54.378Z,1.40
2023-04-19T03:04:54.276Z,1.40
2023-04-19T03:05:54.271Z,1.30
2023-04-19T03:06:54.261Z,1.20
2023-04-19T03:07:54.274Z,1.40
2023-04-19T03:08:54.268Z,1.40
2023-04-19T03:09:54.277Z,1.40
2023-04-19T03:10:54.272Z,1.40
2023-04-19T03:11:54.275Z,1.40
2023-04-19T03:12:54.258Z,1.30
2023-04-19T03:13:54.272Z,1.60
2023-04-19T03:14:54.259Z,1.20
2023-04-19T03:15:54.280Z,1.20
2023-04-19T03:16:54.260Z,1.20
2023-04-19T03:17:54.349Z,1.60
2023-04-19T03:18:54.262Z,1.30
2023-04-19T03:19:54.421Z,1.30
2023-04-19T03:20:54.251Z,1.30
2023-04-19T03:21:54.268Z,1.30
2023-04-19T03:22:54.252Z,1.40
2023-04-19T03:23:54.264Z,1.40
2023-04-19T03:24:54.252Z,1.30
2023-04-19T03:25:54.258Z,1.30
2023-04-19T03:26:54.250Z,1.10
2023-04-19T03:27:54.255Z,1.30
2023-04-19T03:28:54.248Z,1.30
2023-04-19T03:29:54.253Z,1.60
2023-04-19T03:30:54.257Z,1.50
2023-04-19T03:31:54.275Z,1.50
2023-04-19T03:32:54.269Z,1.30
2023-04-19T03:33:54.269Z,1.40
2023-04-19T03:34:54.240Z,1.40
2023-04-19T03:35:54.348Z,1.40
2023-04-19T03:36:54.240Z,1.40
2023-04-19T03:37:54.249Z,1.30
2023-04-19T03:38:54.253Z,1.50
2023-04-19T03:39:54.245Z,1.30
2023-04-19T03:40:54.247Z,1.50
2023-04-19T03:41:54.272Z,1.40
2023-04-19T03:42:54.256Z,1.40
2023-04-19T03:43:54.250Z,1.40
2023-04-19T03:44:54.240Z,1.60
2023-04-19T03:45:54.268Z,1.40
2023-04-19T03:46:54.254Z,1.40
2023-04-19T03:47:54.260Z,1.90
2023-04-19T03:48:54.234Z,1.50
2023-04-19T03:49:54.261Z,1.30
2023-04-19T03:50:54.234Z,1.40
2023-04-19T03:51:54.264Z,1.40
2023-04-19T03:52:54.235Z,1.40
2023-04-19T03:53:54.244Z,1.40
2023-04-19T03:54:54.232Z,1.40
2023-04-19T03:55:54.238Z,1.50
2023-04-19T03:56:54.231Z,1.40
2023-04-19T03:57:54.244Z,1.50
2023-04-19T03:58:54.236Z,1.40
2023-04-19T03:59:54.258Z,1.50
2023-04-19T04:00:54.231Z,1.40
2023-04-19T04:01:54.491Z,1.40
2023-04-19T04:02:54.347Z,1.40
2023-04-19T04:03:54.424Z,1.50
2023-04-19T04:04:54.318Z,1.30
2023-04-19T04:05:54.239Z,1.50
2023-04-19T04:06:54.233Z,1.40
2023-04-19T04:07:54.318Z,1.50
2023-04-19T04:08:54.237Z,1.40
2023-04-19T04:09:54.234Z,1.30
2023-04-19T04:10:54.234Z,1.20
2023-04-19T04:11:54.243Z,1.20
2023-04-19T04:12:54.230Z,1.00
2023-04-19T04:13:54.229Z,1.10
2023-04-19T04:14:54.238Z,1.00
2023-04-19T04:15:54.237Z,0.90
2023-04-19T04:16:54.231Z,1.10
2023-04-19T04:17:54.269Z,1.10
2023-04-19T04:18:54.244Z,0.80
2023-04-19T04:19:54.218Z,1.00
2023-04-19T04:20:54.242Z,0.80
2023-04-19T04:21:54.222Z,1.00
2023-04-19T04:22:54.235Z,1.00
2023-04-19T04:23:54.242Z,1.00
2023-04-19T04:24:54.229Z,0.90
2023-04-19T04:25:54.216Z,1.10
2023-04-19T04:26:54.224Z,0.90
2023-04-19T04:27:54.219Z,1.00
2023-04-19T04:28:54.227Z,0.80
2023-04-19T04:29:54.222Z,0.90
2023-04-19T04:30:54.230Z,0.90
2023-04-19T04:31:54.263Z,0.90
2023-04-19T04:32:54.261Z,0.90
2023-04-19T04:33:54.229Z,0.80
2023-04-19T04:34:54.232Z,0.90
2023-04-19T04:35:54.225Z,1.00
2023-04-19T04:36:54.233Z,0.80
2023-04-19T04:37:54.225Z,1.00
2023-04-19T04:38:54.236Z,0.70
2023-04-19T04:39:54.270Z,0.90
2023-04-19T04:40:54.243Z,0.90
2023-04-19T04:41:54.240Z,1.00
2023-04-19T04:42:54.279Z,0.90
2023-04-19T04:44:08.272Z,0.90
2023-04-19T04:44:54.240Z,0.80
2023-04-19T04:45:54.264Z,0.90
2023-04-19T04:46:54.232Z,0.80
2023-04-19T04:47:54.280Z,0.90
2023-04-19T04:48:54.238Z,0.80
2023-04-19T04:49:54.228Z,0.90
2023-04-19T04:50:54.250Z,0.90
2023-04-19T04:51:54.226Z,1.00
2023-04-19T04:52:54.231Z,1.00
2023-04-19T04:53:54.227Z,0.90
2023-04-19T04:54:54.232Z,0.90
2023-04-19T04:55:54.248Z,0.90
2023-04-19T04:56:54.241Z,1.00
2023-04-19T04:57:54.222Z,0.80
2023-04-19T04:58:54.224Z,1.00
2023-04-19T04:59:54.222Z,1.00
2023-04-19T05:00:54.240Z,0.90
2023-04-19T05:01:54.216Z,1.00
2023-04-19T05:02:54.327Z,0.90
2023-04-19T05:03:54.250Z,1.00
2023-04-19T05:04:54.224Z,1.00
2023-04-19T05:05:54.225Z,0.90
2023-04-19T05:06:54.219Z,0.80
2023-04-19T05:07:54.204Z,1.00
2023-04-19T05:08:54.215Z,0.80
2023-04-19T05:09:54.211Z,0.80
2023-04-19T05:10:54.213Z,0.70
2023-04-19T05:11:54.225Z,0.80
2023-04-19T05:12:54.228Z,0.60
2023-04-19T05:13:54.209Z,0.50
2023-04-19T05:14:54.215Z,0.60
2023-04-19T05:15:54.216Z,0.70
2023-04-19T05:16:54.231Z,0.70
2023-04-19T05:17:54.251Z,0.60
2023-04-19T05:18:54.232Z,0.70
2023-04-19T05:19:54.204Z,0.70
2023-04-19T05:20:54.201Z,0.50
2023-04-19T05:21:54.232Z,0.60
2023-04-19T05:22:54.198Z,0.60
2023-04-19T05:23:54.236Z,0.60
2023-04-19T05:24:54.212Z,0.70
2023-04-19T05:25:54.246Z,0.60
2023-04-19T05:26:54.196Z,0.70
2023-04-19T05:27:54.216Z,0.70
2023-04-19T05:28:54.200Z,0.60
2023-04-19T05:29:54.208Z,0.60
2023-04-19T05:30:54.216Z,0.70
2023-04-19T05:31:54.345Z,0.70
2023-04-19T05:32:54.233Z,0.60
2023-04-19T05:33:54.197Z,0.80
2023-04-19T05:34:54.193Z,0.60
2023-04-19T05:35:54.185Z,0.80
2023-04-19T05:36:54.191Z,0.70
2023-04-19T05:37:54.182Z,0.60
2023-04-19T05:38:54.199Z,0.60
2023-04-19T05:39:54.194Z,0.60
2023-04-19T05:40:54.187Z,0.70
2023-04-19T05:41:54.181Z,0.60
2023-04-19T05:42:54.189Z,0.70
2023-04-19T05:43:54.203Z,0.70
2023-04-19T05:44:54.186Z,0.60
2023-04-19T05:45:54.221Z,0.70
2023-04-19T05:46:54.187Z,0.70
2023-04-19T05:47:54.248Z,0.60
2023-04-19T05:48:54.190Z,0.70
2023-04-19T05:49:54.180Z,0.60
2023-04-19T05:50:54.184Z,0.70
2023-04-19T05:51:54.176Z,0.60
2023-04-19T05:52:54.181Z,0.70
2023-04-19T05:53:55.194Z,0.60
2023-04-19T05:54:54.189Z,0.60
2023-04-19T05:55:54.175Z,0.70
2023-04-19T05:56:54.182Z,0.60
2023-04-19T05:57:54.181Z,0.70
2023-04-19T05:58:54.178Z,0.70
2023-04-19T05:59:54.193Z,0.70
2023-04-19T06:00:54.185Z,0.60
2023-04-19T06:01:54.212Z,0.70
2023-04-19T06:02:54.284Z,0.70
2023-04-19T06:03:54.463Z,0.70
2023-04-19T06:04:54.259Z,0.60
2023-04-19T06:05:54.185Z,0.60
2023-04-19T06:06:54.174Z,0.80
2023-04-19T06:07:59.557Z,0.70
2023-04-19T06:08:54.990Z,0.50
2023-04-19T06:09:54.190Z,0.70
2023-04-19T06:10:58.408Z,0.70
2023-04-19T06:11:54.187Z,0.60
2023-04-19T06:12:54.170Z,0.60
2023-04-19T06:13:54.164Z,0.70
2023-04-19T06:14:54.169Z,0.40
2023-04-19T06:15:54.244Z,0.70
2023-04-19T06:16:54.173Z,0.70
2023-04-19T06:17:54.215Z,0.60
2023-04-19T06:18:54.169Z,0.60
2023-04-19T06:19:54.168Z,0.60
2023-04-19T06:20:54.166Z,0.60
2023-04-19T06:21:54.172Z,0.60
2023-04-19T06:22:54.171Z,0.60
2023-04-19T06:23:54.159Z,0.60
2023-04-19T06:24:54.176Z,0.60
2023-04-19T06:25:54.161Z,0.50
2023-04-19T06:26:54.166Z,0.60
2023-04-19T06:27:54.160Z,0.60
2023-04-19T06:28:54.176Z,0.60
2023-04-19T06:29:54.161Z,0.60
2023-04-19T06:30:54.173Z,0.60
2023-04-19T06:31:54.373Z,0.70
2023-04-19T06:32:54.194Z,0.80
2023-04-19T06:33:54.159Z,0.70
2023-04-19T06:34:54.170Z,0.60
2023-04-19T06:35:54.157Z,0.60
2023-04-19T06:36:54.163Z,0.60
2023-04-19T06:37:54.158Z,0.60
2023-04-19T06:38:54.168Z,0.60
2023-04-19T06:39:54.155Z,0.70
2023-04-19T06:40:54.165Z,0.60
2023-04-19T06:41:54.156Z,0.70
2023-04-19T06:42:54.169Z,0.70
2023-04-19T06:43:54.156Z,0.50
2023-04-19T06:44:54.162Z,0.70
2023-04-19T06:45:54.208Z,0.70
2023-04-19T06:46:54.172Z,0.70
2023-04-19T06:47:54.190Z,0.60
2023-04-19T06:48:54.166Z,0.70
2023-04-19T06:49:54.155Z,0.60
2023-04-19T06:50:54.160Z,0.70
2023-04-19T06:51:54.155Z,0.70
2023-04-19T06:52:54.164Z,0.60
2023-04-19T06:53:54.169Z,0.60
2023-04-19T06:54:54.164Z,0.50
2023-04-19T06:55:54.157Z,0.70
2023-04-19T06:56:54.185Z,0.60
2023-04-19T06:57:54.154Z,0.70
2023-04-19T06:58:54.161Z,0.60
2023-04-19T06:59:54.153Z,0.60
2023-04-19T07:00:54.162Z,0.70
2023-04-19T07:01:54.376Z,0.60
2023-04-19T07:02:54.460Z,0.60
2023-04-19T07:03:57.009Z,0.60
2023-04-19T07:04:54.174Z,0.60
2023-04-19T07:05:54.154Z,0.50
2023-04-19T07:06:54.161Z,0.70
2023-04-19T07:07:54.162Z,0.60
2023-04-19T07:08:54.288Z,0.60
2023-04-19T07:09:54.152Z,0.80
2023-04-19T07:10:54.173Z,0.70
2023-04-19T07:11:54.153Z,0.60
2023-04-19T07:12:54.161Z,0.50
2023-04-19T07:13:54.159Z,0.50
2023-04-19T07:14:54.157Z,0.60
2023-04-19T07:15:54.197Z,0.60
2023-04-19T07:16:54.170Z,0.60
2023-04-19T07:17:54.214Z,0.60
2023-04-19T07:18:54.179Z,0.70
2023-04-19T07:19:54.288Z,0.60
2023-04-19T07:20:54.160Z,0.60
2023-04-19T07:21:54.149Z,0.70
2023-04-19T07:22:54.156Z,0.60
2023-04-19T07:23:54.153Z,0.60
2023-04-19T07:24:54.157Z,0.60
2023-04-19T07:25:54.160Z,0.70
2023-04-19T07:26:54.157Z,0.60
2023-04-19T07:27:54.155Z,0.70
2023-04-19T07:28:54.166Z,0.90
2023-04-19T07:29:54.150Z,0.60
2023-04-19T07:30:54.207Z,0.70
2023-04-19T07:31:54.200Z,0.80
2023-04-19T07:32:54.182Z,0.60
2023-04-19T07:33:54.148Z,0.60
2023-04-19T07:34:54.163Z,0.70
2023-04-19T07:35:54.214Z,0.70
2023-04-19T07:36:54.155Z,0.70
2023-04-19T07:37:54.154Z,0.60
2023-04-19T07:38:54.162Z,0.70
2023-04-19T07:39:54.148Z,0.80
2023-04-19T07:40:54.161Z,0.70
2023-04-19T07:41:54.149Z,0.60
2023-04-19T07:42:54.154Z,0.70
2023-04-19T07:43:54.147Z,0.80
2023-04-19T07:44:54.153Z,0.60
2023-04-19T07:45:54.151Z,0.70
2023-04-19T07:46:54.226Z,0.60
2023-04-19T07:47:54.177Z,0.70
2023-04-19T07:48:54.161Z,0.70
2023-04-19T07:49:54.144Z,0.90
2023-04-19T07:50:54.166Z,0.70
2023-04-19T07:51:54.190Z,0.90
2023-04-19T07:52:54.154Z,0.70
2023-04-19T07:53:54.159Z,0.70
2023-04-19T07:54:54.149Z,0.80
2023-04-19T07:55:54.156Z,0.80
2023-04-19T07:56:54.153Z,0.70
2023-04-19T07:57:54.147Z,0.80
2023-04-19T07:59:06.665Z,0.60
2023-04-19T07:59:54.142Z,0.70
2023-04-19T08:00:54.199Z,0.80
2023-04-19T08:01:54.252Z,0.70
2023-04-19T08:02:54.366Z,0.60
2023-04-19T08:03:54.346Z,0.70
2023-04-19T08:04:54.266Z,0.60
2023-04-19T08:05:54.206Z,0.50
2023-04-19T08:06:54.165Z,0.60
2023-04-19T08:07:54.197Z,0.70
2023-04-19T08:08:54.149Z,0.70
2023-04-19T08:09:54.190Z,0.80
2023-04-19T08:10:54.148Z,0.60
2023-04-19T08:11:54.143Z,0.70
2023-04-19T08:13:04.991Z,0.80
2023-04-19T08:14:06.948Z,0.60
2023-04-19T08:15:03.859Z,0.80
2023-04-19T08:17:54.176Z,0.80
2023-04-19T08:18:54.145Z,0.80
2023-04-19T08:19:54.138Z,0.70
2023-04-19T08:20:54.158Z,0.60
2023-04-19T08:21:54.145Z,0.70
2023-04-19T08:22:54.151Z,0.70
2023-04-19T08:23:54.529Z,0.70
2023-04-19T08:24:54.155Z,0.70
2023-04-19T08:25:54.145Z,0.50
2023-04-19T08:26:54.480Z,0.70
2023-04-19T08:27:54.138Z,0.70
2023-04-19T08:28:54.148Z,0.60
2023-04-19T08:29:54.142Z,0.70
2023-04-19T08:30:54.145Z,0.60
2023-04-19T08:31:54.217Z,0.60
2023-04-19T08:32:56.917Z,0.60
2023-04-19T08:33:54.147Z,0.80
2023-04-19T08:34:54.139Z,0.70
2023-04-19T08:35:54.151Z,0.60
2023-04-19T08:37:03.494Z,0.80
2023-04-19T08:37:54.163Z,0.70
2023-04-19T08:39:04.176Z,0.70
2023-04-19T08:39:54.177Z,0.70
2023-04-19T08:40:54.137Z,0.70
2023-04-19T08:42:04.831Z,0.70
2023-04-19T08:42:54.139Z,0.70
2023-04-19T08:43:54.151Z,0.60
2023-04-19T08:45:13.621Z,0.70
2023-04-19T08:45:54.183Z,0.70
2023-04-19T08:46:54.142Z,0.80
2023-04-19T08:48:00.647Z,0.70
2023-04-19T08:48:54.276Z,0.60
2023-04-19T08:50:05.102Z,0.70
2023-04-19T08:51:54.150Z,0.60
2023-04-19T08:52:58.750Z,0.60
2023-04-19T08:53:54.141Z,0.60
2023-04-19T08:54:54.131Z,0.50
2023-04-19T08:56:10.784Z,0.60
2023-04-19T08:56:54.133Z,0.60
2023-04-19T08:57:54.138Z,0.50
2023-04-19T08:59:07.543Z,0.50
2023-04-19T08:59:54.141Z,0.50
2023-04-19T09:00:54.128Z,0.60
2023-04-19T09:01:54.164Z,0.50
2023-04-19T09:02:54.232Z,0.40
2023-04-19T09:04:02.491Z,0.50
2023-04-19T09:04:54.411Z,0.50
2023-04-19T09:05:54.332Z,0.50
2023-04-19T09:06:54.162Z,0.50
2023-04-19T09:07:54.135Z,0.60
2023-04-19T09:08:54.122Z,0.50
2023-04-19T09:10:03.002Z,0.50
2023-04-19T09:10:54.134Z,0.60
2023-04-19T09:11:54.186Z,0.50
2023-04-19T09:12:54.122Z,0.60
2023-04-19T09:13:54.135Z,0.50
2023-04-19T09:15:01.656Z,0.60
2023-04-19T09:15:54.137Z,0.50
2023-04-19T09:16:54.126Z,0.50
2023-04-19T09:17:54.247Z,0.40
2023-04-19T09:19:00.375Z,0.50
2023-04-19T09:19:54.141Z,0.40
2023-04-19T09:20:54.119Z,0.50
2023-04-19T09:21:54.719Z,0.60
2023-04-19T09:22:54.118Z,0.50
2023-04-19T09:23:54.122Z,0.40
2023-04-19T09:25:34.021Z,0.40
2023-04-19T09:26:54.123Z,0.50
2023-04-19T09:27:54.191Z,0.50
2023-04-19T09:28:54.116Z,0.60
2023-04-19T09:29:54.123Z,0.50
2023-04-19T09:31:06.693Z,0.50
2023-04-19T09:31:54.230Z,0.60
2023-04-19T09:32:54.184Z,0.60
2023-04-19T09:33:54.123Z,0.50
2023-04-19T09:34:54.111Z,0.60
2023-04-19T09:35:54.116Z,0.50
2023-04-19T09:37:04.374Z,0.50
2023-04-19T09:38:04.894Z,0.50
2023-04-19T09:38:54.107Z,0.50
2023-04-19T09:39:54.114Z,0.50
2023-04-19T09:40:54.109Z,0.70
2023-04-19T09:41:54.123Z,0.50
2023-04-19T09:44:08.851Z,0.50
2023-04-19T09:45:27.739Z,0.50
2023-04-19T09:45:54.124Z,0.70
2023-04-19T09:46:54.181Z,0.60
2023-04-19T09:47:54.170Z,0.50
2023-04-19T09:48:54.111Z,0.60
2023-04-19T09:49:54.401Z,0.50
2023-04-19T09:50:59.696Z,0.40
2023-04-19T09:51:54.108Z,0.70
2023-04-19T09:52:54.108Z,0.50
2023-04-19T09:53:54.110Z,0.50
2023-04-19T09:54:54.107Z,0.50
2023-04-19T09:56:01.220Z,0.50
2023-04-19T09:56:57.018Z,0.40
2023-04-19T09:57:54.108Z,0.50
2023-04-19T09:59:01.461Z,0.60
2023-04-19T09:59:54.143Z,0.70
2023-04-19T10:01:02.751Z,0.60
2023-04-19T10:01:54.155Z,0.50
2023-04-19T10:02:54.199Z,0.50
2023-04-19T10:03:54.463Z,0.60
2023-04-19T10:05:11.186Z,0.50
2023-04-19T10:05:54.156Z,0.40
2023-04-19T10:07:19.450Z,0.50
2023-04-19T10:07:56.711Z,0.60
2023-04-19T10:08:54.111Z,0.50
2023-04-19T10:09:56.477Z,0.70
2023-04-19T10:10:54.102Z,0.50
2023-04-19T10:11:58.064Z,0.70
2023-04-19T10:13:54.121Z,0.60
2023-04-19T10:14:54.100Z,0.50
2023-04-19T10:15:59.328Z,0.50
2023-04-19T10:16:54.134Z,0.50
2023-04-19T10:17:54.137Z,0.60
2023-04-19T10:18:54.097Z,0.50
2023-04-19T10:19:54.105Z,0.50
2023-04-19T10:20:54.099Z,0.50
2023-04-19T10:21:54.104Z,0.50
2023-04-19T10:22:54.102Z,0.50
2023-04-19T10:23:54.105Z,0.60
2023-04-19T10:24:54.101Z,0.50
2023-04-19T10:25:54.111Z,0.40
2023-04-19T10:26:54.096Z,0.60
2023-04-19T10:27:54.104Z,0.50
2023-04-19T10:28:54.097Z,0.60
2023-04-19T10:29:54.104Z,0.50
2023-04-19T10:30:54.096Z,0.60
2023-04-19T10:31:54.146Z,0.60
2023-04-19T10:32:54.194Z,0.80
2023-04-19T10:33:54.113Z,0.50
2023-04-19T10:34:54.093Z,0.60
2023-04-19T10:35:54.107Z,0.50
2023-04-19T10:36:54.096Z,0.60
2023-04-19T10:37:54.107Z,0.60
2023-04-19T10:38:54.098Z,0.60
2023-04-19T10:39:54.113Z,0.60
2023-04-19T10:40:54.106Z,0.60
2023-04-19T10:41:54.106Z,0.50
2023-04-19T10:42:54.094Z,0.70
2023-04-19T10:43:54.104Z,0.70
2023-04-19T10:44:54.095Z,0.60
2023-04-19T10:45:54.128Z,0.70
2023-04-19T10:46:54.093Z,0.60
2023-04-19T10:47:54.152Z,0.60
2023-04-19T10:48:54.098Z,0.50
2023-04-19T10:49:54.097Z,0.60
2023-04-19T10:50:54.090Z,0.60
2023-04-19T10:51:54.114Z,0.60
2023-04-19T10:52:54.096Z,0.50
2023-04-19T10:53:54.106Z,0.50
2023-04-19T10:54:54.098Z,0.50
2023-04-19T10:55:54.106Z,0.50
2023-04-19T10:56:54.095Z,0.60
2023-04-19T10:57:54.105Z,0.50
2023-04-19T10:58:54.093Z,0.60
2023-04-19T10:59:54.102Z,0.40
2023-04-19T11:00:54.090Z,0.50
2023-04-19T11:01:54.208Z,0.50
2023-04-19T11:02:54.195Z,0.40
2023-04-19T11:03:54.542Z,0.40
2023-04-19T11:04:54.092Z,0.50
2023-04-19T11:05:54.098Z,0.40
2023-04-19T11:06:54.120Z,0.60
2023-04-19T11:07:54.112Z,0.40
2023-04-19T11:08:54.099Z,0.60
2023-04-19T11:09:54.112Z,0.50
2023-04-19T11:10:54.088Z,0.40
2023-04-19T11:11:54.093Z,0.50
2023-04-19T11:12:54.096Z,0.40
2023-04-19T11:13:54.099Z,0.40
2023-04-19T11:14:54.108Z,0.50
2023-04-19T11:15:54.173Z,0.40
2023-04-19T11:16:54.213Z,0.40
2023-04-19T11:18:08.997Z,0.50
2023-04-19T11:18:54.081Z,0.40
2023-04-19T11:19:54.147Z,0.50
2023-04-19T11:20:54.091Z,0.50
2023-04-19T11:21:54.091Z,0.40
2023-04-19T11:22:54.084Z,0.60
2023-04-19T11:23:54.099Z,0.40
2023-04-19T11:24:54.094Z,0.40
2023-04-19T11:25:54.089Z,0.40
2023-04-19T11:26:55.600Z,0.50
2023-04-19T11:27:54.096Z,0.40
2023-04-19T11:28:54.086Z,0.40
2023-04-19T11:29:54.089Z,0.50
2023-04-19T11:30:54.154Z,0.50
2023-04-19T11:31:54.088Z,0.40
2023-04-19T11:32:54.132Z,0.50
2023-04-19T11:33:54.096Z,0.40
2023-04-19T11:34:54.082Z,0.40
2023-04-19T11:35:54.142Z,0.40
2023-04-19T11:36:54.083Z,0.40
2023-04-19T11:37:54.093Z,0.40
2023-04-19T11:38:54.081Z,0.40
2023-04-19T11:39:54.086Z,0.50
2023-04-19T11:40:54.079Z,0.40
2023-04-19T11:41:54.086Z,0.50
2023-04-19T11:42:54.078Z,0.40
2023-04-19T11:43:54.087Z,0.50
2023-04-19T11:44:54.079Z,0.50
2023-04-19T11:45:54.093Z,0.40
2023-04-19T11:46:54.107Z,0.50
2023-04-19T11:47:54.117Z,0.40
2023-04-19T11:48:54.082Z,0.40
2023-04-19T11:49:54.112Z,0.60
2023-04-19T11:50:54.083Z,0.50
2023-04-19T11:51:54.232Z,0.40
2023-04-19T11:52:54.083Z,0.50
2023-04-19T11:53:54.109Z,0.50
2023-04-19T11:54:54.085Z,0.40
2023-04-19T11:55:54.113Z,0.50
2023-04-19T11:56:54.077Z,0.60
2023-04-19T11:57:54.086Z,0.40
2023-04-19T11:58:54.077Z,0.50
2023-04-19T11:59:54.088Z,0.50
2023-04-19T12:00:54.084Z,0.50
2023-04-19T12:01:54.116Z,0.50
2023-04-19T12:02:54.192Z,0.60
2023-04-19T12:03:54.328Z,0.50
2023-04-19T12:04:54.239Z,0.50
2023-04-19T12:05:54.122Z,0.60
2023-04-19T12:06:54.076Z,0.50
2023-04-19T12:07:54.169Z,0.50
2023-04-19T12:08:54.079Z,0.50
2023-04-19T12:09:54.081Z,0.50
2023-04-19T12:10:54.077Z,0.60
2023-04-19T12:11:54.085Z,0.50
2023-04-19T12:12:54.078Z,0.50
2023-04-19T12:13:54.082Z,0.40
2023-04-19T12:14:54.075Z,0.40
2023-04-19T12:15:54.081Z,0.50
2023-04-19T12:16:54.092Z,0.50
2023-04-19T12:17:57.376Z,0.40
2023-04-19T12:18:54.074Z,0.50
2023-04-19T12:19:54.084Z,0.50
2023-04-19T12:20:54.091Z,0.50
2023-04-19T12:21:54.081Z,0.50
2023-04-19T12:22:54.070Z,0.40
2023-04-19T12:23:54.109Z,0.60
2023-04-19T12:24:54.072Z,0.50
2023-04-19T12:25:54.078Z,0.70
2023-04-19T12:26:55.757Z,0.50
2023-04-19T12:27:54.078Z,0.50
2023-04-19T12:28:54.070Z,0.60
2023-04-19T12:29:54.076Z,0.50
2023-04-19T12:30:54.077Z,0.50
2023-04-19T12:31:54.114Z,0.60
2023-04-19T12:32:54.090Z,0.50
2023-04-19T12:33:54.076Z,0.60
2023-04-19T12:34:54.067Z,0.50
2023-04-19T12:35:54.075Z,0.60
2023-04-19T12:36:54.066Z,0.50
2023-04-19T12:37:54.074Z,0.60
2023-04-19T12:38:54.070Z,0.50
2023-04-19T12:39:55.960Z,0.50
2023-04-19T12:40:54.063Z,0.60
2023-04-19T12:41:54.075Z,0.60
2023-04-19T12:42:54.066Z,0.60
2023-04-19T12:43:54.070Z,0.50
2023-04-19T12:44:54.076Z,0.60
2023-04-19T12:45:54.100Z,0.60
2023-04-19T12:46:54.068Z,0.60
2023-04-19T12:47:54.157Z,0.60
2023-04-19T12:48:54.067Z,0.70
2023-04-19T12:49:54.061Z,0.70
2023-04-19T12:50:54.066Z,0.70
2023-04-19T12:51:56.560Z,0.70
2023-04-19T12:52:54.090Z,0.60
2023-04-19T12:53:54.059Z,0.60
2023-04-19T12:54:54.064Z,0.50
2023-04-19T12:55:54.102Z,0.50
2023-04-19T12:56:54.070Z,0.70
2023-04-19T12:57:54.061Z,0.60
2023-04-19T12:58:54.063Z,0.50
2023-04-19T12:59:54.055Z,0.50
2023-04-19T13:00:54.077Z,0.60
2023-04-19T13:01:54.188Z,0.50
2023-04-19T13:02:54.146Z,0.70
2023-04-19T13:03:56.293Z,0.70
2023-04-19T13:04:54.250Z,0.60
2023-04-19T13:05:54.055Z,0.70
2023-04-19T13:06:54.059Z,0.60
2023-04-19T13:07:54.052Z,0.60
2023-04-19T13:08:54.887Z,0.60
2023-04-19T13:09:56.054Z,0.70
2023-04-19T13:10:54.066Z,0.60
2023-04-19T13:11:54.073Z,0.80
2023-04-19T13:12:54.056Z,0.50
2023-04-19T13:13:54.054Z,0.60
2023-04-19T13:14:54.059Z,0.70
2023-04-19T13:15:54.112Z,0.60
2023-04-19T13:16:54.054Z,0.60
2023-04-19T13:17:54.097Z,0.60
2023-04-19T13:18:54.058Z,0.60
2023-04-19T13:19:54.048Z,0.60
2023-04-19T13:20:54.061Z,0.60
2023-04-19T13:21:54.054Z,0.60
2023-04-19T13:22:54.068Z,0.70
2023-04-19T13:23:54.052Z,0.60
2023-04-19T13:24:54.053Z,0.70